createdAt,value
2022-11-20T00:00:03.295Z,0
2022-11-20T00:05:02.967Z,0
2022-11-20T00:10:03.090Z,0
2022-11-20T00:15:02.933Z,0
2022-11-20T00:20:02.996Z,0.112
2022-11-20T00:25:02.993Z,0.124
2022-11-20T00:30:03.037Z,0.123
2022-11-20T00:35:03.134Z,0.123
2022-11-20T00:40:03.022Z,0.037
2022-11-20T00:45:03.117Z,0
2022-11-20T00:50:02.988Z,0.009000000000000001
2022-11-20T00:55:03.199Z,0.001
2022-11-20T01:00:03.147Z,0
2022-11-20T01:05:03.032Z,0
2022-11-20T01:10:03.009Z,0
2022-11-20T01:15:02.990Z,0
2022-11-20T01:20:03.110Z,0
2022-11-20T01:25:03.025Z,0
2022-11-20T01:30:03.066Z,0
2022-11-20T01:35:03.098Z,0
2022-11-20T01:40:03.032Z,0.094
2022-11-20T01:45:03.171Z,0.14300000000000002
2022-11-20T01:50:03.032Z,0.109
2022-11-20T01:55:01.028Z,0.115
2022-11-20T02:00:01.065Z,0.123
2022-11-20T02:05:01.272Z,0.084
2022-11-20T02:10:01.265Z,0
2022-11-20T02:15:01.028Z,0.002
2022-11-20T02:20:01.046Z,0
2022-11-20T02:25:01.059Z,0
2022-11-20T02:30:01.036Z,0
2022-11-20T02:35:01.228Z,0
2022-11-20T02:40:01.039Z,0
2022-11-20T02:45:01.049Z,0
2022-11-20T02:50:01.041Z,0
2022-11-20T02:55:01.046Z,0
2022-11-20T03:00:01.181Z,0
2022-11-20T03:05:01.334Z,0
2022-11-20T03:10:01.148Z,0
2022-11-20T03:15:01.073Z,0
2022-11-20T03:20:01.078Z,0
2022-11-20T03:25:01.165Z,0
2022-11-20T03:30:01.237Z,0.025
2022-11-20T03:35:01.085Z,0.113
2022-11-20T03:40:01.114Z,0.112
2022-11-20T03:45:01.156Z,0.113
2022-11-20T03:50:01.212Z,0.092
2022-11-20T03:55:01.386Z,0
2022-11-20T04:00:01.157Z,0
2022-11-20T04:05:01.173Z,0
2022-11-20T04:10:01.116Z,0
2022-11-20T04:15:01.111Z,0
2022-11-20T04:20:01.318Z,0.001
2022-11-20T04:25:01.212Z,0
2022-11-20T04:30:01.140Z,0
2022-11-20T04:35:01.179Z,0
2022-11-20T04:40:01.116Z,0
2022-11-20T04:45:01.205Z,0
2022-11-20T04:50:01.404Z,0
2022-11-20T04:55:01.333Z,0
2022-11-20T05:00:01.173Z,0
2022-11-20T05:05:01.135Z,0
2022-11-20T05:10:01.224Z,0.10200000000000001
2022-11-20T05:15:01.364Z,0.125
2022-11-20T05:20:01.157Z,0.117
2022-11-20T05:25:01.256Z,0.158
2022-11-20T05:30:01.226Z,0.125
2022-11-20T05:35:01.290Z,0
2022-11-20T05:40:01.220Z,0
2022-11-20T05:45:01.156Z,0
2022-11-20T05:50:01.246Z,0
2022-11-20T05:55:01.302Z,0
2022-11-20T06:00:01.358Z,0
2022-11-20T06:05:01.469Z,0
2022-11-20T06:10:01.259Z,0
2022-11-20T06:15:01.255Z,0
2022-11-20T06:20:01.289Z,0
2022-11-20T06:25:01.355Z,0
2022-11-20T06:30:01.402Z,0
2022-11-20T06:35:01.245Z,0.004
2022-11-20T06:40:01.203Z,0.002
2022-11-20T06:45:01.387Z,0
2022-11-20T06:50:01.387Z,0
2022-11-20T06:55:01.294Z,0
2022-11-20T07:00:01.269Z,0
2022-11-20T07:05:01.317Z,0
2022-11-20T07:10:01.286Z,0
2022-11-20T07:15:01.394Z,0
2022-11-20T07:20:01.270Z,17.038
2022-11-20T07:25:01.359Z,28.094
2022-11-20T07:30:01.420Z,30.714000000000002
2022-11-20T07:35:01.275Z,127.522
2022-11-20T07:40:01.485Z,250.193
2022-11-20T07:45:01.311Z,342.158
2022-11-20T07:50:01.336Z,385.023
2022-11-20T07:55:01.309Z,469.166
2022-11-20T08:00:01.396Z,637.408
2022-11-20T08:05:01.594Z,786.3580000000001
2022-11-20T08:10:01.337Z,923.852
2022-11-20T08:15:01.380Z,1028.944
2022-11-20T08:20:01.357Z,1144.797
2022-11-20T08:25:01.440Z,1303.9180000000001
2022-11-20T08:30:01.535Z,1598.632
2022-11-20T08:35:01.392Z,2110.225
2022-11-20T08:40:01.412Z,2585.654
2022-11-20T08:45:01.361Z,2962.1330000000003
2022-11-20T08:50:01.481Z,3363.819
2022-11-20T08:55:01.444Z,3658.621
2022-11-20T09:00:06.290Z,3863.3720000000003
2022-11-20T09:05:01.377Z,4063.57
2022-11-20T09:10:22.477Z,4198.117
2022-11-20T09:15:01.531Z,4337.173
2022-11-20T09:20:01.424Z,4492.343
2022-11-20T09:25:01.393Z,4637.412
2022-11-20T09:30:01.527Z,4737.5560000000005
2022-11-20T09:40:01.604Z,4921.613
2022-11-20T09:45:01.413Z,4948.404
2022-11-20T09:50:01.412Z,4948.158
2022-11-20T09:55:01.496Z,5106.369
2022-11-20T10:00:01.548Z,5173.567
2022-11-20T10:05:01.425Z,5187.272
2022-11-20T10:10:01.517Z,5227.1410000000005
2022-11-20T10:15:01.479Z,5229.724
2022-11-20T10:20:01.511Z,4672.292
2022-11-20T10:25:01.649Z,4905.7570000000005
2022-11-20T10:30:01.440Z,5031.4980000000005
2022-11-20T10:35:01.475Z,4970.985
2022-11-20T10:40:01.518Z,5303.734
2022-11-20T10:45:05.561Z,5368.021
2022-11-20T10:50:01.680Z,5532.493
2022-11-20T10:55:01.499Z,5072.133
2022-11-20T11:00:01.482Z,4514.849
2022-11-20T11:05:01.504Z,4842.657
2022-11-20T11:10:01.708Z,4290.957
2022-11-20T11:15:01.501Z,5039.588
2022-11-20T11:20:01.496Z,5677.477
2022-11-20T11:25:01.582Z,5804.9890000000005
2022-11-20T11:30:02.016Z,5782.29
2022-11-20T11:35:01.569Z,3973.9590000000003
2022-11-20T11:40:23.276Z,4456.414
2022-11-20T11:45:01.557Z,5669.475
2022-11-20T11:50:01.520Z,5231.441
2022-11-20T11:55:02.547Z,4356.097
2022-11-20T12:00:01.534Z,3789.1620000000003
2022-11-20T12:05:01.539Z,4066.006
2022-11-20T12:10:01.541Z,4238.278
2022-11-20T12:15:01.680Z,4660.976
2022-11-20T12:20:01.717Z,3185.665
2022-11-20T12:25:01.570Z,4027.639
2022-11-20T12:30:01.668Z,5216.801
2022-11-20T12:35:01.570Z,4969.012
2022-11-20T12:40:01.714Z,4873.400000000001
2022-11-20T12:45:01.558Z,4762.1630000000005
2022-11-20T12:50:01.594Z,4513.0160000000005
2022-11-20T12:55:01.594Z,3856.533
2022-11-20T13:00:01.685Z,3694.591
2022-11-20T13:05:01.570Z,3505.646
2022-11-20T13:10:01.614Z,3242.07
2022-11-20T13:15:01.617Z,3071.436
2022-11-20T13:20:01.614Z,2953.674
2022-11-20T13:25:01.778Z,2779.362
2022-11-20T13:30:01.605Z,2359.974
2022-11-20T13:35:01.642Z,1966.878
2022-11-20T13:40:01.655Z,1659.9170000000001
2022-11-20T13:45:01.714Z,1478.255
2022-11-20T13:50:01.647Z,1106.069
2022-11-20T13:55:01.639Z,848.663
2022-11-20T14:00:01.685Z,598.644
2022-11-20T14:05:01.629Z,403.39300000000003
2022-11-20T14:10:01.786Z,327.12600000000003
2022-11-20T14:15:01.643Z,254.784
2022-11-20T14:20:02.547Z,184.778
2022-11-20T14:25:02.112Z,182.49
2022-11-20T14:30:01.842Z,121.43
2022-11-20T14:35:01.719Z,70.368
2022-11-20T14:40:01.618Z,39.488
2022-11-20T14:45:02.238Z,26.945
2022-11-20T14:50:04.610Z,26.44
2022-11-20T14:55:01.718Z,7.557
2022-11-20T15:00:01.736Z,0.057
2022-11-20T15:05:01.687Z,0.045
2022-11-20T15:10:01.738Z,0.021
2022-11-20T15:15:01.867Z,0.012
2022-11-20T15:20:01.679Z,0.032
2022-11-20T15:25:01.819Z,0.015
2022-11-20T15:30:01.969Z,0
2022-11-20T15:35:01.851Z,0.389
2022-11-20T15:40:01.745Z,0.002
2022-11-20T15:45:01.689Z,0.019
2022-11-20T15:50:01.729Z,0.054
2022-11-20T15:55:05.445Z,0.128
2022-11-20T16:00:01.934Z,0.047
2022-11-20T16:05:01.748Z,0.085
2022-11-20T16:10:01.730Z,0.067
2022-11-20T16:15:01.771Z,0.077
2022-11-20T16:20:01.923Z,0.075
2022-11-20T16:25:01.770Z,0.043000000000000003
2022-11-20T16:30:01.760Z,0.046
2022-11-20T16:35:01.876Z,0.045
2022-11-20T16:40:01.787Z,0.043000000000000003
2022-11-20T16:45:01.953Z,0.07200000000000001
2022-11-20T16:50:01.758Z,0.129
2022-11-20T16:55:01.762Z,0.215
2022-11-20T17:00:02.395Z,0.036000000000000004
2022-11-20T17:05:02.011Z,0.03
2022-11-20T17:10:01.825Z,0.003
2022-11-20T17:15:01.785Z,0.058
2022-11-20T17:20:01.790Z,0.039
2022-11-20T17:25:01.919Z,0.085
2022-11-20T17:30:02.009Z,0.076
2022-11-20T17:35:01.847Z,0.033
2022-11-20T17:40:01.791Z,0.011
2022-11-20T17:45:01.850Z,0.018000000000000002
2022-11-20T17:50:01.985Z,0.025
2022-11-20T17:55:01.847Z,0.024
2022-11-20T18:00:01.829Z,0.053
2022-11-20T18:05:01.846Z,0.034
2022-11-20T18:10:01.871Z,0.041
2022-11-20T18:15:02.008Z,0.063
2022-11-20T18:25:01.861Z,0.068
2022-11-20T18:30:01.871Z,0.068
2022-11-20T18:35:02.172Z,0.098
2022-11-20T18:40:01.855Z,0.078
2022-11-20T18:45:01.871Z,0.101
2022-11-20T18:50:01.945Z,0.094
2022-11-20T18:55:01.910Z,0.089
2022-11-20T19:00:08.235Z,0.098
2022-11-20T19:05:01.891Z,0.027
2022-11-20T19:10:03.835Z,0
2022-11-20T19:15:01.939Z,0
2022-11-20T19:20:02.017Z,0.026000000000000002
2022-11-20T19:25:01.979Z,0.14
2022-11-20T19:30:02.040Z,0.139
2022-11-20T19:35:01.963Z,0.11
2022-11-20T19:40:01.934Z,0.341
2022-11-20T19:45:02.081Z,0.08600000000000001
2022-11-20T19:50:02.085Z,0.08600000000000001
2022-11-20T19:55:01.962Z,0.065
2022-11-20T20:00:01.938Z,0.059000000000000004
2022-11-20T20:05:01.995Z,0.029
2022-11-20T20:10:02.097Z,0.037
2022-11-20T20:15:01.966Z,0.034
2022-11-20T20:20:01.997Z,0.075
2022-11-20T20:25:01.987Z,0.10200000000000001
2022-11-20T20:30:02.105Z,0.097
2022-11-20T20:35:01.934Z,0.08600000000000001
2022-11-20T20:40:01.974Z,0.048
2022-11-20T20:45:02.003Z,0.051000000000000004
2022-11-20T20:50:02.097Z,0.08600000000000001
2022-11-20T20:55:02.013Z,0.077
2022-11-20T21:00:02.068Z,0.059000000000000004
2022-11-20T21:05:02.006Z,0.035
2022-11-20T21:10:02.041Z,0.016
2022-11-20T21:15:02.122Z,0.062
2022-11-20T21:20:01.987Z,0.091
2022-11-20T21:25:02.023Z,0.078
2022-11-20T21:30:02.016Z,0.065
2022-11-20T21:35:02.144Z,0.08700000000000001
2022-11-20T21:40:02.204Z,0.109
2022-11-20T21:45:02.024Z,0.04
2022-11-20T21:50:02.039Z,0
2022-11-20T21:55:02.050Z,0
2022-11-20T22:00:02.172Z,0.055
2022-11-20T22:05:02.065Z,0.045
2022-11-20T22:10:02.116Z,0.064
2022-11-20T22:15:02.154Z,0.07100000000000001
2022-11-20T22:20:02.065Z,0.063
2022-11-20T22:25:02.292Z,0.08
2022-11-20T22:30:02.153Z,0.121
2022-11-20T22:35:02.122Z,0.082
2022-11-20T22:40:02.106Z,0.08
2022-11-20T22:45:02.099Z,0.099
2022-11-20T22:50:02.357Z,0.07100000000000001
2022-11-20T22:55:02.076Z,0.078
2022-11-20T23:00:02.189Z,0.078
2022-11-20T23:05:02.119Z,0.974
2022-11-20T23:10:02.134Z,2.121
2022-11-20T23:15:02.248Z,1.472
2022-11-20T23:20:02.132Z,1.338
2022-11-20T23:25:02.141Z,1.361
2022-11-20T23:30:02.128Z,1.3760000000000001
2022-11-20T23:35:02.237Z,1.907
2022-11-20T23:40:02.134Z,1.7590000000000001
2022-11-20T23:45:02.163Z,1.893
2022-11-20T23:50:02.141Z,1.725
2022-11-20T23:55:02.166Z,1.73
